Time;durP1;ratioP1;P1;durP2;ratioP2;P2;SDS_P1;SDS_P2;PMS_P1;PMS_P2;Temp;Humidity;BMP_temperature;BMP_pressure;BME280_temperature;BME280_humidity;BME280_pressure;Samples;Min_cycle;Max_cycle;Signal;HPM_P1;HPM_P2
2023/01/03 00:00:45;;;;;;;0.38;0.38;;;19.40;56.10;;;;;;6342810;28;20020;-72
2023/01/03 00:03:46;;;;;;;0.43;0.40;;;19.50;56.20;;;;;;6339355;28;20045;-71
2023/01/03 00:06:49;;;;;;;0.25;0.20;;;19.50;56.10;;;;;;6318972;28;20021;-71
2023/01/03 00:09:50;;;;;;;0.45;0.35;;;19.40;56.00;;;;;;6318754;28;20625;-71
2023/01/03 00:12:50;;;;;;;0.55;0.40;;;19.50;56.10;;;;;;6320132;28;20028;-71
2023/01/03 00:15:51;;;;;;;0.40;0.32;;;19.40;56.00;;;;;;6340848;28;20454;-71
2023/01/03 00:18:51;;;;;;;0.30;0.25;;;19.50;56.10;;;;;;6345462;28;20024;-71
2023/01/03 00:21:53;;;;;;;0.73;0.40;;;19.40;56.00;;;;;;6345324;28;20365;-70
2023/01/03 00:24:53;;;;;;;0.47;0.40;;;19.50;56.10;;;;;;6345063;28;20534;-71
2023/01/03 00:27:54;;;;;;;0.60;0.38;;;19.40;56.00;;;;;;6344999;28;20047;-71
2023/01/03 00:30:55;;;;;;;0.52;0.40;;;19.40;56.00;;;;;;6338946;28;20030;-71
2023/01/03 00:33:55;;;;;;;0.40;0.40;;;19.40;56.00;;;;;;6319616;28;20024;-71
2023/01/03 00:36:56;;;;;;;1.05;0.50;;;19.40;56.00;;;;;;6319706;28;20024;-70
2023/01/03 00:39:57;;;;;;;0.40;0.30;;;19.40;56.00;;;;;;6319340;28;20020;-71
2023/01/03 00:46:19;;;;;;;0.40;0.30;;;19.50;56.10;;;;;;6339792;28;20028;-71
2023/01/03 00:49:20;;;;;;;0.43;0.30;;;19.40;56.00;;;;;;6344259;28;20031;-71
2023/01/03 00:52:21;;;;;;;0.40;0.32;;;19.50;56.10;;;;;;6345175;28;20032;-71
2023/01/03 00:55:21;;;;;;;0.50;0.40;;;19.40;56.00;;;;;;6344092;28;20563;-71
2023/01/03 00:58:22;;;;;;;0.38;0.30;;;19.40;56.00;;;;;;6344501;28;20361;-70
2023/01/03 01:01:32;;;;;;;0.60;0.35;;;19.40;56.00;;;;;;6342931;28;20118;-71
2023/01/03 01:04:33;;;;;;;0.68;0.40;;;19.40;56.00;;;;;;6344203;28;20080;-71
2023/01/03 01:07:33;;;;;;;0.50;0.50;;;19.40;56.00;;;;;;6344534;28;20032;-71
2023/01/03 01:10:34;;;;;;;0.40;0.30;;;19.40;56.00;;;;;;6340056;28;20099;-71
2023/01/03 01:13:35;;;;;;;0.35;0.35;;;19.50;56.20;;;;;;6317243;28;20679;-71
2023/01/03 01:16:36;;;;;;;1.08;0.30;;;19.40;56.00;;;;;;6319039;28;20035;-71
2023/01/03 01:19:42;;;;;;;0.82;0.30;;;19.40;56.00;;;;;;6317345;28;20567;-71
2023/01/03 01:22:43;;;;;;;0.40;0.30;;;19.40;56.00;;;;;;6317255;28;20020;-71
2023/01/03 01:25:44;;;;;;;0.40;0.30;;;19.40;56.00;;;;;;6317202;28;20047;-71
2023/01/03 01:28:45;;;;;;;0.80;0.40;;;19.50;56.10;;;;;;6318568;28;20028;-71
2023/01/03 01:31:46;;;;;;;0.73;0.40;;;19.50;56.10;;;;;;6317253;28;20050;-71
2023/01/03 01:34:47;;;;;;;1.30;0.38;;;19.40;56.00;;;;;;6317970;28;20023;-71
2023/01/03 01:37:48;;;;;;;0.30;0.30;;;19.40;56.00;;;;;;6344291;28;20096;-71
2023/01/03 01:40:48;;;;;;;0.47;0.38;;;19.40;56.00;;;;;;6335766;28;20051;-71
2023/01/03 01:47:20;;;;;;;0.47;0.35;;;19.40;56.00;;;;;;6318941;28;20028;-71
2023/01/03 01:50:36;;;;;;;0.45;0.35;;;19.40;56.10;;;;;;6322440;28;20023;-71
2023/01/03 01:53:41;;;;;;;0.30;0.30;;;19.40;56.00;;;;;;6349303;28;20031;-70
2023/01/03 01:56:48;;;;;;;0.30;0.30;;;19.50;56.10;;;;;;6347337;28;20074;-71
2023/01/03 01:59:49;;;;;;;0.32;0.32;;;19.40;56.00;;;;;;6348627;28;20024;-71
2023/01/03 02:02:52;;;;;;;0.40;0.30;;;19.50;56.10;;;;;;6325793;28;20065;-71
2023/01/03 02:05:55;;;;;;;0.70;0.40;;;19.40;56.00;;;;;;6329040;28;20016;-71
2023/01/03 02:08:55;;;;;;;0.30;0.30;;;19.40;56.00;;;;;;6348743;28;20024;-71
2023/01/03 02:15:54;;;;;;;0.30;0.30;;;19.40;56.00;;;;;;6348513;28;20024;-71
2023/01/03 02:19:28;;;;;;;0.30;0.20;;;19.40;55.90;;;;;;6346944;28;20020;-71
2023/01/03 02:22:57;;;;;;;0.30;0.30;;;19.40;56.00;;;;;;6346854;28;20019;-71
2023/01/03 02:26:19;;;;;;;0.30;0.30;;;19.50;56.00;;;;;;6297405;28;20021;-71
2023/01/03 02:29:38;;;;;;;0.28;0.28;;;19.40;55.90;;;;;;6297832;28;20061;-71
2023/01/03 02:32:48;;;;;;;0.28;0.28;;;19.40;55.90;;;;;;6297610;28;20358;-71
2023/01/03 02:36:02;;;;;;;0.52;0.45;;;19.40;55.90;;;;;;6298696;28;20025;-71
2023/01/03 02:39:30;;;;;;;0.70;0.40;;;19.40;55.90;;;;;;6347840;28;20032;-71
2023/01/03 02:43:04;;;;;;;0.30;0.30;;;19.50;56.00;;;;;;6306064;28;20151;-72
2023/01/03 02:46:25;;;;;;;0.30;0.25;;;19.40;55.80;;;;;;6296965;28;20020;-71
2023/01/03 02:49:28;;;;;;;0.55;0.47;;;19.40;55.80;;;;;;6296955;28;20067;-71
2023/01/03 02:52:30;;;;;;;0.40;0.35;;;19.40;55.80;;;;;;6296621;28;20033;-71
2023/01/03 02:55:33;;;;;;;0.68;0.40;;;19.40;55.80;;;;;;6296688;28;20060;-71
2023/01/03 02:58:37;;;;;;;0.40;0.32;;;19.40;55.80;;;;;;6297050;28;20481;-71
2023/01/03 03:01:43;;;;;;;0.45;0.32;;;19.40;55.80;;;;;;6302854;28;20495;-71
2023/01/03 03:04:47;;;;;;;0.93;0.38;;;19.40;55.80;;;;;;6347243;27;20035;-72
2023/01/03 03:07:48;;;;;;;0.63;0.40;;;19.40;55.80;;;;;;6347022;27;20024;-71
2023/01/03 03:14:22;;;;;;;0.60;0.35;;;19.40;55.80;;;;;;6322196;28;20537;-71
2023/01/03 03:17:29;;;;;;;0.38;0.30;;;19.40;55.80;;;;;;6329886;28;20238;-71
2023/01/03 03:30:37;;;;;;;0.30;0.20;;;19.40;55.80;;;;;;6347092;28;20023;-71
2023/01/03 03:33:47;;;;;;;0.60;0.30;;;19.40;55.80;;;;;;6362293;27;20023;-71
2023/01/03 03:37:10;;;;;;;0.40;0.25;;;19.40;55.80;;;;;;6346927;28;20047;-71
2023/01/03 03:47:12;;;;;;;0.40;0.30;;;19.40;55.80;;;;;;6346029;28;20020;-71
2023/01/03 03:50:23;;;;;;;0.30;0.30;;;19.40;55.80;;;;;;6346504;28;20080;-71
2023/01/03 03:53:27;;;;;;;0.52;0.38;;;19.40;55.80;;;;;;6345446;28;20043;-71
2023/01/03 03:56:30;;;;;;;0.68;0.40;;;19.40;55.80;;;;;;6345985;28;20052;-72
2023/01/03 03:59:32;;;;;;;0.20;0.20;;;19.40;55.80;;;;;;6345998;28;20030;-71
2023/01/03 04:02:34;;;;;;;0.25;0.20;;;19.40;55.80;;;;;;6342471;28;20358;-71
2023/01/03 04:05:47;;;;;;;0.30;0.20;;;19.40;55.80;;;;;;6336229;28;20027;-71
2023/01/03 04:08:48;;;;;;;0.30;0.30;;;19.40;55.70;;;;;;6320137;28;20035;-71
2023/01/03 04:11:49;;;;;;;0.45;0.30;;;19.40;55.70;;;;;;6319940;28;20496;-70
2023/01/03 04:14:49;;;;;;;0.30;0.20;;;19.40;55.70;;;;;;6319081;28;20031;-71
2023/01/03 04:17:50;;;;;;;0.93;0.20;;;19.40;55.70;;;;;;6318670;28;20020;-71
2023/01/03 04:20:51;;;;;;;0.60;0.40;;;19.40;55.70;;;;;;6319951;28;20024;-71
2023/01/03 04:23:51;;;;;;;0.30;0.30;;;19.40;55.70;;;;;;6320074;28;20048;-71
2023/01/03 04:26:52;;;;;;;0.82;0.25;;;19.40;55.70;;;;;;6319678;28;20524;-71
2023/01/03 04:29:53;;;;;;;0.38;0.30;;;19.40;55.70;;;;;;6339236;28;20150;-71
2023/01/03 04:32:53;;;;;;;1.02;0.40;;;19.40;55.70;;;;;;6342799;28;20023;-72
2023/01/03 04:35:54;;;;;;;0.20;0.20;;;19.40;55.70;;;;;;6319689;28;20039;-71
2023/01/03 04:38:55;;;;;;;0.47;0.30;;;19.40;55.70;;;;;;6319548;28;20444;-71
2023/01/03 04:41:55;;;;;;;0.73;0.30;;;19.40;55.70;;;;;;6319757;28;20016;-71
2023/01/03 04:44:56;;;;;;;0.88;0.30;;;19.40;55.70;;;;;;6319124;28;20024;-72
2023/01/03 04:47:58;;;;;;;0.32;0.30;;;19.40;55.70;;;;;;6319071;28;20016;-73
2023/01/03 04:50:59;;;;;;;0.45;0.20;;;19.40;55.70;;;;;;6319464;28;20150;-71
2023/01/03 04:54:00;;;;;;;0.38;0.30;;;19.40;55.60;;;;;;6319620;28;20046;-71
2023/01/03 04:57:01;;;;;;;0.20;0.20;;;19.40;55.50;;;;;;6318774;28;20105;-71
2023/01/03 05:00:45;;;;;;;0.45;0.40;;;19.40;55.60;;;;;;6318799;28;20054;-71
2023/01/03 05:03:47;;;;;;;0.52;0.43;;;19.40;55.50;;;;;;6318554;28;20672;-71
2023/01/03 05:06:51;;;;;;;1.38;0.30;;;19.40;55.60;;;;;;6319342;28;20020;-71
2023/01/03 05:09:51;;;;;;;0.40;0.40;;;19.40;55.60;;;;;;6318596;28;20396;-70
2023/01/03 05:13:01;;;;;;;0.40;0.30;;;19.40;55.50;;;;;;6318823;28;20102;-71
2023/01/03 05:16:07;;;;;;;0.25;0.13;;;19.40;55.50;;;;;;6339535;28;20493;-71
2023/01/03 05:19:08;;;;;;;0.40;0.25;;;19.40;55.50;;;;;;6343897;28;20027;-71
2023/01/03 05:28:51;;;;;;;0.38;0.30;;;19.40;55.60;;;;;;6342357;28;20023;-71
2023/01/03 05:31:52;;;;;;;0.20;0.15;;;19.40;55.50;;;;;;6318569;28;20035;-71
2023/01/03 05:34:53;;;;;;;3.60;0.40;;;19.40;55.50;;;;;;6318302;28;20028;-71
2023/01/03 05:37:54;;;;;;;0.57;0.50;;;19.40;55.50;;;;;;6318064;28;20031;-71
2023/01/03 05:40:54;;;;;;;0.47;0.22;;;19.40;55.40;;;;;;6336631;28;20023;-71
2023/01/03 05:43:55;;;;;;;0.98;0.40;;;19.40;55.50;;;;;;6332997;28;20020;-70
2023/01/03 05:46:57;;;;;;;0.50;0.35;;;19.40;55.50;;;;;;6343707;28;20024;-71
2023/01/03 05:49:58;;;;;;;0.25;0.20;;;19.40;55.40;;;;;;6343367;28;20046;-72
2023/01/03 05:52:58;;;;;;;0.20;0.20;;;19.40;55.50;;;;;;6343360;28;20076;-71
2023/01/03 05:56:04;;;;;;;0.20;0.20;;;19.40;55.50;;;;;;6343146;28;20775;-71
2023/01/03 05:59:06;;;;;;;0.30;0.20;;;19.40;55.40;;;;;;6343336;28;20039;-70
2023/01/03 06:02:07;;;;;;;0.55;0.20;;;19.40;55.50;;;;;;6318725;28;20024;-71
2023/01/03 06:05:08;;;;;;;1.13;0.22;;;19.40;55.40;;;;;;6292982;28;20021;-71
2023/01/03 06:08:09;;;;;;;0.30;0.30;;;19.40;55.40;;;;;;6292784;28;20029;-71
2023/01/03 06:11:12;;;;;;;0.20;0.20;;;19.40;55.40;;;;;;6315193;28;20016;-71
2023/01/03 06:14:13;;;;;;;0.47;0.20;;;19.40;56.10;;;;;;6318113;28;20028;-71
2023/01/03 06:20:33;;;;;;;0.40;0.30;;;19.40;55.40;;;;;;6317482;28;20028;-71
2023/01/03 06:23:34;;;;;;;0.30;0.30;;;19.40;55.30;;;;;;6317672;28;20027;-71
2023/01/03 06:26:35;;;;;;;0.40;0.30;;;19.40;55.30;;;;;;6333715;28;20028;-71
2023/01/03 06:29:36;;;;;;;0.25;0.20;;;19.40;55.30;;;;;;6342998;28;20035;-71
2023/01/03 06:32:37;;;;;;;0.55;0.30;;;19.40;55.30;;;;;;6309678;28;20024;-70
2023/01/03 06:35:38;;;;;;;0.40;0.30;;;19.40;55.30;;;;;;6317358;28;20035;-70
2023/01/03 06:38:39;;;;;;;0.30;0.30;;;19.40;55.40;;;;;;6325581;28;20028;-70
2023/01/03 06:41:40;;;;;;;0.80;0.32;;;19.40;55.30;;;;;;6321869;28;20312;-71
2023/01/03 06:44:41;;;;;;;0.50;0.40;;;19.40;55.30;;;;;;6322196;28;20047;-71
2023/01/03 06:54:29;;;;;;;0.52;0.25;;;19.40;55.20;;;;;;6327343;28;20020;-70
2023/01/03 06:57:30;;;;;;;0.38;0.30;;;19.40;55.40;;;;;;6338336;28;20501;-70
2023/01/03 07:00:31;;;;;;;0.50;0.30;;;19.40;55.30;;;;;;6326074;28;20026;-70
2023/01/03 07:03:32;;;;;;;3.30;0.43;;;19.40;55.30;;;;;;6348044;28;20026;-70
2023/01/03 07:06:33;;;;;;;2.53;0.30;;;19.40;55.30;;;;;;6348692;28;20080;-71
2023/01/03 07:09:34;;;;;;;0.73;0.30;;;19.40;55.30;;;;;;6312741;28;20032;-69
2023/01/03 07:15:53;;;;;;;0.30;0.28;;;19.50;55.50;;;;;;6343980;28;20020;-70
2023/01/03 07:18:55;;;;;;;1.30;0.40;;;19.50;55.40;;;;;;6335666;28;20396;-70
2023/01/03 07:21:55;;;;;;;0.82;0.40;;;19.50;55.20;;;;;;6348090;28;20567;-70
2023/01/03 07:24:56;;;;;;;0.90;0.35;;;19.50;55.00;;;;;;6337823;28;20031;-70
2023/01/03 07:27:57;;;;;;;0.60;0.40;;;19.50;54.80;;;;;;6330964;28;20480;-69
2023/01/03 07:31:03;;;;;;;0.30;0.30;;;19.60;54.80;;;;;;6322636;28;20477;-70
2023/01/03 07:34:04;;;;;;;4.50;0.52;;;19.60;54.70;;;;;;6324036;28;20032;-72
2023/01/03 07:37:04;;;;;;;1.92;0.30;;;19.60;54.60;;;;;;6325244;28;20035;-70
2023/01/03 07:40:06;;;;;;;0.82;0.38;;;19.60;54.60;;;;;;6321850;28;20028;-70
2023/01/03 07:46:29;;;;;;;1.23;0.40;;;19.60;54.60;;;;;;6320476;28;20472;-70
2023/01/03 07:49:30;;;;;;;0.35;0.32;;;19.60;54.90;;;;;;6322094;28;20024;-70
2023/01/03 07:52:30;;;;;;;1.00;0.40;;;19.60;54.80;;;;;;6333927;28;20074;-72
2023/01/03 07:55:32;;;;;;;0.30;0.30;;;19.70;54.70;;;;;;6324151;28;20048;-71
2023/01/03 07:58:34;;;;;;;0.82;0.40;;;19.70;54.70;;;;;;6321793;28;20028;-69
2023/01/03 08:01:34;;;;;;;0.98;0.38;;;19.70;54.70;;;;;;6321928;28;20024;-70
2023/01/03 08:04:35;;;;;;;1.08;0.40;;;19.70;54.60;;;;;;6334517;28;20031;-70
2023/01/03 08:07:37;;;;;;;0.57;0.40;;;19.70;54.60;;;;;;6323377;28;20393;-70
2023/01/03 08:13:57;;;;;;;0.65;0.30;;;19.80;54.70;;;;;;6325381;28;20032;-70
2023/01/03 08:16:58;;;;;;;1.13;0.50;;;19.80;54.70;;;;;;6321941;28;20528;-70
2023/01/03 08:19:58;;;;;;;1.20;0.30;;;19.80;54.60;;;;;;6321238;28;20027;-70
2023/01/03 08:22:59;;;;;;;0.95;0.40;;;19.80;54.80;;;;;;6334357;28;20125;-71
2023/01/03 08:26:11;;;;;;;0.73;0.40;;;19.80;54.60;;;;;;6311930;28;20462;-70
2023/01/03 08:29:12;;;;;;;1.45;0.40;;;19.80;54.70;;;;;;6326600;28;20059;-68
2023/01/03 08:32:14;;;;;;;2.15;0.43;;;19.80;54.70;;;;;;6339660;28;20020;-67
2023/01/03 08:35:15;;;;;;;1.25;0.50;;;19.80;54.80;;;;;;6314369;28;20019;-68
2023/01/03 08:38:24;;;;;;;0.73;0.35;;;19.80;54.80;;;;;;6332493;28;20089;-68
2023/01/03 08:41:30;;;;;;;1.48;0.38;;;19.80;54.70;;;;;;6321870;28;20024;-68
2023/01/03 08:44:31;;;;;;;1.90;0.40;;;19.80;54.60;;;;;;6324504;28;20093;-68
2023/01/03 08:47:33;;;;;;;4.05;0.57;;;19.80;54.60;;;;;;6321436;28;20473;-67
2023/01/03 08:50:34;;;;;;;0.85;0.30;;;19.80;54.60;;;;;;6318176;28;20024;-69
2023/01/03 08:53:34;;;;;;;2.47;0.30;;;19.80;54.70;;;;;;6333953;28;20499;-68
2023/01/03 08:56:35;;;;;;;1.13;0.52;;;19.80;54.60;;;;;;6340058;28;20050;-68
2023/01/03 08:59:36;;;;;;;1.02;0.38;;;19.80;54.60;;;;;;6324641;28;20050;-68
2023/01/03 09:02:36;;;;;;;1.67;0.47;;;19.80;54.90;;;;;;6320828;28;20024;-68
2023/01/03 09:05:37;;;;;;;1.92;0.50;;;19.90;54.70;;;;;;6322554;28;20393;-68
2023/01/03 09:08:38;;;;;;;1.60;0.45;;;19.90;54.60;;;;;;6321324;28;20480;-68
2023/01/03 09:11:38;;;;;;;1.15;0.50;;;19.90;54.50;;;;;;6321154;28;20028;-68
2023/01/03 09:14:39;;;;;;;1.98;0.40;;;19.80;54.60;;;;;;6333532;28;20565;-68
2023/01/03 09:17:44;;;;;;;1.73;0.40;;;19.80;54.70;;;;;;6335976;28;20042;-70
2023/01/03 09:20:49;;;;;;;0.95;0.38;;;19.80;54.60;;;;;;6346118;28;20031;-69
2023/01/03 09:23:50;;;;;;;4.38;0.70;;;19.80;54.90;;;;;;6359790;27;20078;-67
2023/01/03 09:26:51;;;;;;;2.80;0.85;;;19.70;53.90;;;;;;6330575;28;20032;-68
2023/01/03 09:29:52;;;;;;;2.63;0.75;;;19.70;52.90;;;;;;6319462;28;20039;-68
2023/01/03 09:32:52;;;;;;;4.40;1.58;;;19.60;52.40;;;;;;6343885;28;20027;-68
2023/01/03 09:35:54;;;;;;;7.50;1.25;;;19.60;50.80;;;;;;6344985;28;20400;-68
2023/01/03 09:38:54;;;;;;;4.65;0.93;;;19.60;51.30;;;;;;6332402;28;20035;-68
2023/01/03 09:45:26;;;;;;;2.38;0.82;;;19.60;52.30;;;;;;6320565;28;20028;-68
2023/01/03 09:48:32;;;;;;;1.92;0.80;;;19.60;52.50;;;;;;6303541;28;20140;-68
2023/01/03 10:06:07;;;;;;;1.95;0.70;;;19.70;53.00;;;;;;6321184;28;20036;-68
2023/01/03 10:09:22;;;;;;;10.23;1.13;;;19.80;53.00;;;;;;6322144;28;20385;-68
2023/01/03 10:13:08;;;;;;;1.95;0.88;;;19.80;53.00;;;;;;6326052;28;20028;-68
2023/01/03 10:16:33;;;;;;;1.60;0.60;;;19.80;53.20;;;;;;6286329;28;20024;-68
2023/01/03 10:20:14;;;;;;;1.80;0.65;;;19.80;53.00;;;;;;6323275;28;20274;-69
2023/01/03 10:23:15;;;;;;;2.83;0.70;;;19.80;53.10;;;;;;6327870;28;20576;-67
2023/01/03 10:26:15;;;;;;;1.27;0.80;;;19.80;53.40;;;;;;6332437;28;20020;-68
2023/01/03 10:29:17;;;;;;;2.60;0.80;;;19.80;53.20;;;;;;6332710;28;20028;-68
2023/01/03 10:32:21;;;;;;;0.98;0.60;;;19.80;53.30;;;;;;6342743;28;20145;-68
2023/01/03 10:35:32;;;;;;;1.13;0.63;;;19.80;53.50;;;;;;6327443;28;20039;-70
2023/01/03 10:38:34;;;;;;;2.30;0.80;;;19.80;53.40;;;;;;6343084;28;20059;-68
2023/01/03 10:41:47;;;;;;;1.73;0.73;;;19.80;53.20;;;;;;6324302;28;20028;-68
2023/01/03 10:45:02;;;;;;;2.65;0.80;;;19.90;53.60;;;;;;6334804;28;20473;-68
2023/01/03 10:48:04;;;;;;;4.65;0.82;;;19.90;53.70;;;;;;6330683;28;20056;-68
2023/01/03 10:51:22;;;;;;;2.40;0.60;;;19.90;53.40;;;;;;6323652;28;20035;-68
2023/01/03 10:54:42;;;;;;;1.40;0.68;;;19.90;53.50;;;;;;6339915;28;20028;-69
2023/01/03 10:57:47;;;;;;;2.05;0.68;;;19.90;53.60;;;;;;6332080;28;20496;-68
2023/01/03 11:00:47;;;;;;;0.82;0.50;;;19.90;53.60;;;;;;6329712;28;20539;-69
2023/01/03 11:04:14;;;;;;;1.45;0.55;;;19.90;53.60;;;;;;6328704;28;20102;-68
2023/01/03 11:07:15;;;;;;;1.30;0.50;;;19.90;53.70;;;;;;6294810;28;20578;-68
2023/01/03 11:10:17;;;;;;;2.28;0.60;;;19.90;53.60;;;;;;6325200;28;20077;-68
2023/01/03 11:13:21;;;;;;;1.63;0.70;;;19.80;53.60;;;;;;6322122;28;20028;-68
2023/01/03 11:16:28;;;;;;;1.60;0.57;;;19.80;53.60;;;;;;6324028;28;20051;-68
2023/01/03 11:19:32;;;;;;;0.93;0.50;;;19.90;53.70;;;;;;6327900;28;20028;-68
2023/01/03 11:22:40;;;;;;;1.15;0.60;;;19.90;53.60;;;;;;6322965;28;20021;-68
2023/01/03 11:26:01;;;;;;;2.70;0.82;;;19.90;53.50;;;;;;6321717;28;20024;-70
2023/01/03 11:29:22;;;;;;;3.75;0.60;;;19.90;53.80;;;;;;6322620;28;20055;-69
2023/01/03 11:32:34;;;;;;;2.47;0.70;;;19.90;53.70;;;;;;6319325;28;20383;-69
2023/01/03 11:35:49;;;;;;;1.70;0.70;;;19.90;53.60;;;;;;6320254;28;20114;-69
2023/01/03 11:39:23;;;;;;;1.92;0.52;;;19.90;53.70;;;;;;6317544;28;20024;-70
2023/01/03 11:42:49;;;;;;;1.15;0.60;;;19.90;53.60;;;;;;6326490;28;20033;-68
2023/01/03 11:46:17;;;;;;;3.60;0.80;;;19.80;53.60;;;;;;6323945;28;20027;-69
2023/01/03 11:49:29;;;;;;;0.70;0.60;;;19.80;53.60;;;;;;6320498;28;20501;-69
2023/01/03 11:53:00;;;;;;;1.42;0.50;;;19.80;53.60;;;;;;6327559;28;20024;-68
2023/01/03 11:56:29;;;;;;;2.70;0.73;;;19.80;53.60;;;;;;6333758;28;20044;-69
2023/01/03 11:59:54;;;;;;;1.08;0.55;;;19.80;53.60;;;;;;6326062;28;20520;-69
2023/01/03 12:03:19;;;;;;;2.10;0.63;;;19.80;53.70;;;;;;6324928;28;20016;-69
2023/01/03 12:06:28;;;;;;;5.93;0.63;;;19.80;53.70;;;;;;6317832;28;20268;-69
2023/01/03 12:09:44;;;;;;;2.75;1.10;;;19.80;53.80;;;;;;6327389;28;20077;-69
2023/01/03 12:12:58;;;;;;;1.92;0.80;;;19.80;53.80;;;;;;6328904;28;20030;-69
2023/01/03 12:16:30;;;;;;;0.90;0.47;;;19.80;53.90;;;;;;6326596;28;20095;-69
2023/01/03 12:19:53;;;;;;;4.53;0.68;;;19.80;53.90;;;;;;6308795;28;20055;-69
2023/01/03 12:23:11;;;;;;;15.90;0.70;;;19.90;53.80;;;;;;6321158;28;20389;-69
2023/01/03 12:26:14;;;;;;;1.00;0.52;;;19.90;54.50;;;;;;6319138;28;20027;-70
2023/01/03 12:29:46;;;;;;;2.63;0.85;;;20.00;54.30;;;;;;6326587;28;20020;-70
2023/01/03 12:32:53;;;;;;;3.38;0.75;;;20.00;54.20;;;;;;6327751;28;20846;-69
2023/01/03 12:36:27;;;;;;;3.13;1.02;;;19.90;53.90;;;;;;6326974;28;20081;-69
2023/01/03 12:39:56;;;;;;;1.85;0.63;;;19.90;53.90;;;;;;6339775;28;20031;-70
2023/01/03 12:43:03;;;;;;;1.15;0.60;;;19.90;54.00;;;;;;6326342;28;20013;-69
2023/01/03 12:46:19;;;;;;;1.33;0.57;;;20.00;54.00;;;;;;6345077;28;20492;-69
2023/01/03 12:49:36;;;;;;;7.97;0.70;;;20.00;53.90;;;;;;6345417;28;20024;-69
2023/01/03 12:52:39;;;;;;;0.70;0.50;;;20.00;53.90;;;;;;6344862;28;20038;-68
2023/01/03 12:56:22;;;;;;;2.30;0.80;;;20.00;53.90;;;;;;6344291;28;20040;-69
2023/01/03 12:59:38;;;;;;;0.95;0.55;;;20.00;53.90;;;;;;6318575;27;20127;-69
2023/01/03 13:02:42;;;;;;;0.73;0.40;;;20.00;53.90;;;;;;6319455;28;20016;-69
2023/01/03 13:05:49;;;;;;;3.38;0.68;;;20.00;54.00;;;;;;6331869;28;20022;-68
2023/01/03 13:08:57;;;;;;;2.58;0.52;;;20.00;53.90;;;;;;6344930;28;20019;-69
2023/01/03 13:12:11;;;;;;;0.93;0.50;;;20.00;53.90;;;;;;6337497;28;20053;-69
2023/01/03 13:15:17;;;;;;;0.80;0.50;;;20.00;53.90;;;;;;6325690;28;20112;-69
2023/01/03 13:18:38;;;;;;;1.50;0.60;;;20.00;54.00;;;;;;6344544;28;20383;-71
2023/01/03 13:21:54;;;;;;;0.70;0.60;;;20.10;53.90;;;;;;6333094;28;20126;-69
2023/01/03 13:25:38;;;;;;;1.13;0.60;;;20.20;53.80;;;;;;6296483;28;20072;-68
2023/01/03 13:28:40;;;;;;;1.58;0.60;;;20.30;53.60;;;;;;6321583;28;20052;-69
2023/01/03 13:31:40;;;;;;;5.35;1.63;;;20.40;53.10;;;;;;6333850;28;20031;-69
2023/01/03 13:34:41;;;;;;;12.70;1.67;;;20.50;53.20;;;;;;6338650;28;20106;-69
2023/01/03 13:37:50;;;;;;;9.63;1.90;;;20.50;52.90;;;;;;6341553;28;20433;-68
2023/01/03 13:40:56;;;;;;;6.82;2.22;;;20.60;52.90;;;;;;6337877;28;20432;-69
2023/01/03 13:44:07;;;;;;;5.00;1.52;;;20.60;53.00;;;;;;6314740;28;20019;-68
2023/01/03 13:47:22;;;;;;;8.55;2.42;;;20.60;52.70;;;;;;6312430;28;20854;-69
2023/01/03 13:50:32;;;;;;;10.77;2.00;;;20.60;53.30;;;;;;6319745;28;20507;-68
2023/01/03 13:53:52;;;;;;;9.23;2.30;;;20.60;52.80;;;;;;6303238;28;20036;-69
2023/01/03 13:57:01;;;;;;;6.85;1.63;;;20.70;52.60;;;;;;6318047;28;20048;-68
2023/01/03 14:00:11;;;;;;;4.88;1.48;;;20.70;52.50;;;;;;6344017;28;20455;-69
2023/01/03 14:03:15;;;;;;;6.63;1.52;;;20.70;52.40;;;;;;6334557;28;20024;-69
2023/01/03 14:06:40;;;;;;;4.20;1.42;;;20.70;52.50;;;;;;6318517;28;20087;-69
2023/01/03 14:10:18;;;;;;;6.75;1.90;;;20.70;52.60;;;;;;6319135;28;20031;-72
2023/01/03 14:13:52;;;;;;;4.75;1.63;;;20.70;52.90;;;;;;6315627;28;20035;-68
2023/01/03 14:16:55;;;;;;;21.27;5.35;;;20.60;53.20;;;;;;6304500;28;20436;-71
2023/01/03 14:20:02;;;;;;;9.70;2.08;;;20.70;53.10;;;;;;6317587;28;20032;-72
2023/01/03 14:23:07;;;;;;;8.15;2.22;;;20.70;52.70;;;;;;6320962;28;20024;-69
2023/01/03 14:26:16;;;;;;;12.45;2.53;;;20.70;53.00;;;;;;6318229;28;20540;-68
2023/01/03 14:29:20;;;;;;;6.05;1.63;;;20.80;52.60;;;;;;6332623;28;20495;-69
2023/01/03 14:32:30;;;;;;;10.18;1.92;;;20.80;52.90;;;;;;6350057;28;20366;-69
2023/01/03 14:35:40;;;;;;;9.68;1.67;;;20.80;52.90;;;;;;6323334;28;20047;-70
2023/01/03 14:38:55;;;;;;;5.57;1.88;;;20.80;52.80;;;;;;6334312;28;20020;-69
2023/01/03 14:41:56;;;;;;;10.13;1.65;;;20.80;52.60;;;;;;6323379;28;20035;-70
2023/01/03 14:45:02;;;;;;;4.28;1.50;;;20.90;52.70;;;;;;6324490;28;20771;-70
2023/01/03 14:48:04;;;;;;;7.18;1.98;;;20.90;52.50;;;;;;6324143;28;20023;-69
2023/01/03 14:51:08;;;;;;;6.97;2.10;;;20.90;52.60;;;;;;6361402;28;20030;-69
2023/01/03 14:54:15;;;;;;;10.50;1.95;;;20.90;52.40;;;;;;6342371;28;20020;-70
2023/01/03 14:57:27;;;;;;;5.22;1.48;;;20.80;52.80;;;;;;6359941;28;20457;-69
2023/01/03 15:00:30;;;;;;;8.23;1.70;;;20.90;52.60;;;;;;6326067;28;20085;-70
2023/01/03 15:03:35;;;;;;;8.35;1.77;;;20.90;52.70;;;;;;6322176;28;20055;-71
2023/01/03 15:06:36;;;;;;;4.93;1.30;;;20.90;53.10;;;;;;6323056;28;20081;-70
2023/01/03 15:09:37;;;;;;;6.70;2.30;;;20.90;52.60;;;;;;6335591;28;20021;-69
2023/01/03 15:12:49;;;;;;;8.18;2.00;;;20.90;52.50;;;;;;6323679;28;20479;-73
2023/01/03 15:15:56;;;;;;;9.73;1.65;;;20.90;52.60;;;;;;6322378;28;20056;-72
2023/01/03 15:19:04;;;;;;;4.03;1.58;;;20.90;52.60;;;;;;6339735;28;20545;-70
2023/01/03 15:22:14;;;;;;;3.72;1.52;;;20.90;52.60;;;;;;6362774;27;20039;-70
2023/01/03 15:25:18;;;;;;;8.90;1.80;;;20.90;52.70;;;;;;6345638;28;20388;-73
2023/01/03 15:28:51;;;;;;;3.77;1.53;;;20.80;52.60;;;;;;6346946;28;20153;-71
2023/01/03 15:31:59;;;;;;;5.25;1.70;;;20.80;52.70;;;;;;6288884;28;20043;-69
2023/01/03 15:34:59;;;;;;;4.63;1.60;;;20.80;52.70;;;;;;6334562;28;20043;-69
2023/01/03 15:38:02;;;;;;;8.20;1.95;;;20.80;52.80;;;;;;6339139;28;20046;-69
2023/01/03 15:43:18;;;;;;;10.18;1.60;;;20.70;52.80;;;;;;6337272;28;20468;-68
2023/01/03 15:44:38;;;;;;;4.20;1.38;;;20.70;52.90;;;;;;6320272;28;20028;-71
2023/01/03 15:47:41;;;;;;;6.93;1.75;;;20.70;52.90;;;;;;6320320;28;20039;-69
2023/01/03 15:50:46;;;;;;;3.63;1.42;;;20.70;52.90;;;;;;6345943;28;20028;-69
2023/01/03 15:53:47;;;;;;;7.07;2.25;;;20.70;53.00;;;;;;6332298;28;20434;-70
2023/01/03 15:57:02;;;;;;;7.90;2.47;;;20.70;53.10;;;;;;6326785;28;20056;-70
2023/01/03 16:00:05;;;;;;;5.38;2.08;;;20.70;52.90;;;;;;6334870;28;20048;-69
2023/01/03 16:03:14;;;;;;;7.07;2.15;;;20.80;53.60;;;;;;6320950;28;20055;-69
2023/01/03 16:06:17;;;;;;;6.95;2.20;;;20.80;53.10;;;;;;6338679;28;20392;-69
2023/01/03 16:09:19;;;;;;;9.85;2.30;;;20.70;53.20;;;;;;6344930;28;20447;-70
2023/01/03 16:12:25;;;;;;;7.22;2.40;;;20.60;53.40;;;;;;6327185;28;20028;-69
2023/01/03 16:15:26;;;;;;;9.10;2.40;;;20.50;53.30;;;;;;6334370;28;20044;-68
2023/01/03 16:18:38;;;;;;;5.97;1.90;;;20.50;53.40;;;;;;6326377;28;20484;-69
2023/01/03 16:21:40;;;;;;;6.13;2.13;;;20.50;53.50;;;;;;6346239;27;20031;-71
2023/01/03 16:24:40;;;;;;;7.10;2.20;;;20.40;54.20;;;;;;6333364;28;20024;-69
2023/01/03 16:27:42;;;;;;;6.88;2.15;;;20.40;53.60;;;;;;6346233;28;20051;-69
2023/01/03 16:30:42;;;;;;;6.68;2.50;;;20.40;53.60;;;;;;6336190;28;20020;-68
2023/01/03 16:33:45;;;;;;;8.10;2.20;;;20.40;53.60;;;;;;6322996;28;20043;-69
2023/01/03 16:36:47;;;;;;;5.90;2.20;;;20.40;53.60;;;;;;6345754;28;20020;-68
2023/01/03 16:39:47;;;;;;;8.70;2.40;;;20.40;53.60;;;;;;6345539;28;20066;-68
2023/01/03 16:42:48;;;;;;;5.15;2.03;;;20.40;53.60;;;;;;6343620;28;20031;-68
2023/01/03 16:45:49;;;;;;;7.43;2.47;;;20.40;53.60;;;;;;6331304;28;20091;-69
2023/01/03 16:48:52;;;;;;;6.93;2.45;;;20.40;53.70;;;;;;6318568;28;20116;-70
2023/01/03 16:51:52;;;;;;;5.88;1.92;;;20.40;53.60;;;;;;6336821;28;20031;-69
2023/01/03 16:54:53;;;;;;;5.55;1.70;;;20.40;53.50;;;;;;6343004;28;20035;-69
2023/01/03 16:57:55;;;;;;;6.20;2.33;;;20.40;53.70;;;;;;6320944;28;20115;-69
2023/01/03 17:00:55;;;;;;;8.73;1.70;;;20.40;53.90;;;;;;6336670;28;20024;-70
2023/01/03 17:03:56;;;;;;;10.27;2.03;;;20.40;54.10;;;;;;6320431;28;20027;-68
2023/01/03 17:06:57;;;;;;;11.50;2.17;;;20.40;54.00;;;;;;6338273;28;20031;-68
2023/01/03 17:09:58;;;;;;;10.13;2.47;;;20.40;53.90;;;;;;6344235;28;20023;-68
2023/01/03 17:13:01;;;;;;;3.78;1.70;;;20.40;53.90;;;;;;6319939;28;20129;-67
2023/01/03 17:16:03;;;;;;;5.88;2.10;;;20.30;53.90;;;;;;6317979;28;20034;-67
2023/01/03 17:19:04;;;;;;;6.20;2.05;;;20.30;54.10;;;;;;6317524;28;20081;-67
2023/01/03 17:22:10;;;;;;;7.20;2.00;;;20.30;54.10;;;;;;6328455;28;20870;-68
2023/01/03 17:25:11;;;;;;;6.05;2.00;;;20.30;54.20;;;;;;6316761;28;20477;-68